Time;durP1;ratioP1;P1;durP2;ratioP2;P2;SDS_P1;SDS_P2;PMS_P1;PMS_P2;Temp;Humidity;BMP_temperature;BMP_pressure;BME280_temperature;BME280_humidity;BME280_pressure;Samples;Min_cycle;Max_cycle;Signal;HPM_P1;HPM_P2
2023/10/14 00:01:13;;;;;;;8.10;4.50;;;;;;;;;;4984611;28;20195;-84
2023/10/14 00:03:43;;;;;;;8.23;4.57;;;;;;;;;;5013424;28;20842;-84
2023/10/14 00:06:12;;;;;;;8.23;5.00;;;;;;;;;;5015910;28;20311;-83
2023/10/14 00:08:48;;;;;;;11.37;4.83;;;;;;;;;;4997520;28;20182;-84
2023/10/14 00:11:14;;;;;;;10.17;4.73;;;;;;;;;;4979027;28;20267;-84
2023/10/14 00:13:41;;;;;;;9.77;5.03;;;;;;;;;;4983412;28;20198;-83
2023/10/14 00:16:11;;;;;;;8.33;5.20;;;;;;;;;;5013695;28;20530;-84
2023/10/14 00:18:42;;;;;;;7.63;5.00;;;;;;;;;;4979158;28;20194;-83
2023/10/14 00:21:12;;;;;;;6.63;4.43;;;;;;;;;;5020234;28;20268;-84
2023/10/14 00:23:38;;;;;;;8.27;4.47;;;;;;;;;;5012438;28;20622;-84
2023/10/14 00:26:13;;;;;;;7.87;4.60;;;;;;;;;;5007018;28;20676;-83
2023/10/14 00:28:42;;;;;;;7.80;4.90;;;;;;;;;;4973219;28;20618;-84
2023/10/14 00:31:10;;;;;;;9.73;4.37;;;;;;;;;;4981884;28;20268;-84
2023/10/14 00:33:37;;;;;;;8.13;4.80;;;;;;;;;;4995788;28;20182;-84
2023/10/14 00:36:03;;;;;;;8.63;4.70;;;;;;;;;;5003258;28;20218;-83
2023/10/14 00:38:34;;;;;;;8.87;4.80;;;;;;;;;;5005401;28;20590;-83
2023/10/14 00:41:00;;;;;;;10.40;4.87;;;;;;;;;;4991414;28;20300;-83
2023/10/14 00:43:27;;;;;;;11.80;5.20;;;;;;;;;;4982837;28;20198;-84
2023/10/14 00:45:53;;;;;;;6.30;4.60;;;;;;;;;;5000466;28;20211;-84
2023/10/14 00:48:27;;;;;;;10.10;4.70;;;;;;;;;;5015712;28;20799;-84
2023/10/14 00:51:01;;;;;;;7.30;4.50;;;;;;;;;;4992300;28;20190;-82
2023/10/14 00:53:28;;;;;;;10.03;4.60;;;;;;;;;;5019164;28;20179;-83
2023/10/14 00:55:58;;;;;;;9.30;5.07;;;;;;;;;;5004370;28;20202;-84
2023/10/14 00:58:24;;;;;;;8.50;4.67;;;;;;;;;;4982553;28;20249;-84
2023/10/14 01:00:57;;;;;;;7.07;4.50;;;;;;;;;;4989542;28;20198;-83
2023/10/14 01:03:24;;;;;;;9.07;4.70;;;;;;;;;;4981746;28;20261;-84
2023/10/14 01:05:50;;;;;;;7.17;4.70;;;;;;;;;;5008178;28;20283;-85
2023/10/14 01:08:18;;;;;;;8.37;5.20;;;;;;;;;;4985497;28;20189;-84
2023/10/14 01:10:44;;;;;;;7.90;5.00;;;;;;;;;;4989288;28;20244;-84
2023/10/14 01:13:17;;;;;;;8.47;4.70;;;;;;;;;;5027148;28;20218;-83
2023/10/14 01:15:46;;;;;;;9.43;4.90;;;;;;;;;;4990536;28;20237;-84
2023/10/14 01:18:14;;;;;;;12.30;5.10;;;;;;;;;;5003821;28;20265;-84
2023/10/14 01:20:41;;;;;;;12.80;5.50;;;;;;;;;;4983605;28;20253;-84
2023/10/14 01:23:07;;;;;;;9.37;4.90;;;;;;;;;;4997111;28;20219;-84
2023/10/14 01:25:46;;;;;;;9.27;5.93;;;;;;;;;;5005440;28;20217;-84
2023/10/14 01:28:15;;;;;;;9.80;5.63;;;;;;;;;;5004222;28;20642;-83
2023/10/14 01:31:10;;;;;;;8.87;5.33;;;;;;;;;;5017339;28;20185;-83
2023/10/14 01:33:37;;;;;;;8.73;5.33;;;;;;;;;;4961487;28;20206;-84
2023/10/14 01:36:04;;;;;;;12.67;5.73;;;;;;;;;;5023088;28;20232;-84
2023/10/14 01:38:33;;;;;;;13.30;5.73;;;;;;;;;;4991538;28;20190;-83
2023/10/14 01:41:04;;;;;;;12.07;5.80;;;;;;;;;;4987697;28;20222;-83
2023/10/14 01:43:31;;;;;;;9.97;5.67;;;;;;;;;;5001692;28;20195;-84
2023/10/14 01:48:33;;;;;;;9.40;5.50;;;;;;;;;;5015486;28;20192;-83
2023/10/14 01:50:59;;;;;;;10.37;5.67;;;;;;;;;;4992556;28;20572;-85
2023/10/14 01:53:27;;;;;;;14.73;5.33;;;;;;;;;;4990010;28;20317;-85
2023/10/14 01:55:54;;;;;;;13.07;5.97;;;;;;;;;;5002216;28;20745;-84
2023/10/14 01:58:32;;;;;;;11.17;6.30;;;;;;;;;;4995450;28;20183;-85
2023/10/14 02:03:54;;;;;;;15.27;6.80;;;;;;;;;;4986119;28;20324;-85
2023/10/14 02:06:26;;;;;;;12.13;6.40;;;;;;;;;;4998775;28;20217;-84
2023/10/14 02:08:57;;;;;;;11.50;5.70;;;;;;;;;;4998449;28;20191;-84
2023/10/14 02:11:24;;;;;;;10.30;6.13;;;;;;;;;;4980342;28;20211;-84
2023/10/14 02:13:51;;;;;;;9.43;6.30;;;;;;;;;;4996392;28;20195;-84
2023/10/14 02:16:24;;;;;;;12.03;6.63;;;;;;;;;;4997006;28;20179;-84
2023/10/14 02:18:50;;;;;;;13.00;6.00;;;;;;;;;;4980846;28;20586;-84
2023/10/14 02:21:19;;;;;;;12.83;6.50;;;;;;;;;;5014126;28;20997;-83
2023/10/14 02:23:47;;;;;;;13.77;6.13;;;;;;;;;;4996485;28;20195;-84
2023/10/14 02:26:30;;;;;;;14.47;6.67;;;;;;;;;;5012372;28;20653;-84
2023/10/14 02:28:57;;;;;;;11.97;5.83;;;;;;;;;;4998718;28;20195;-84
2023/10/14 02:33:54;;;;;;;16.53;6.87;;;;;;;;;;4987906;28;20194;-84
2023/10/14 02:36:28;;;;;;;12.10;6.50;;;;;;;;;;4988521;28;20198;-84
2023/10/14 02:38:55;;;;;;;18.37;6.50;;;;;;;;;;5002579;28;20193;-84
2023/10/14 02:41:21;;;;;;;12.23;5.53;;;;;;;;;;4974507;28;20207;-84
2023/10/14 02:43:49;;;;;;;10.57;5.80;;;;;;;;;;5013346;28;20277;-83
2023/10/14 02:46:25;;;;;;;13.17;6.40;;;;;;;;;;4981828;28;20211;-83
2023/10/14 02:48:54;;;;;;;10.77;6.23;;;;;;;;;;5002239;28;20190;-84
2023/10/14 02:51:41;;;;;;;13.23;7.27;;;;;;;;;;5002657;28;20210;-84
2023/10/14 02:54:26;;;;;;;12.67;6.70;;;;;;;;;;4987523;28;20273;-84
2023/10/14 02:57:00;;;;;;;13.27;6.80;;;;;;;;;;4983424;28;20187;-84
2023/10/14 03:02:14;;;;;;;13.10;6.03;;;;;;;;;;5016035;28;20214;-84
2023/10/14 03:05:32;;;;;;;10.60;5.93;;;;;;;;;;4996558;28;20238;-83
2023/10/14 03:07:31;;;;;;;12.90;6.40;;;;;;;;;;5001383;28;20245;-83
2023/10/14 03:10:11;;;;;;;14.20;6.33;;;;;;;;;;4997971;28;20197;-84
2023/10/14 03:12:39;;;;;;;23.30;11.97;;;;;;;;;;4994855;28;20207;-84
2023/10/14 03:15:18;;;;;;;12.27;7.20;;;;;;;;;;4979619;28;20479;-83
2023/10/14 03:18:01;;;;;;;9.93;6.23;;;;;;;;;;4995998;28;20591;-84
2023/10/14 03:23:00;;;;;;;12.53;5.97;;;;;;;;;;5021165;28;20250;-84
2023/10/14 03:25:30;;;;;;;10.70;5.90;;;;;;;;;;4990559;28;20207;-84
2023/10/14 03:28:11;;;;;;;11.37;6.10;;;;;;;;;;4996441;28;20548;-84
2023/10/14 03:30:40;;;;;;;10.73;5.47;;;;;;;;;;5018755;28;20194;-84
2023/10/14 03:33:10;;;;;;;12.40;6.17;;;;;;;;;;5005612;28;20219;-84
2023/10/14 03:35:37;;;;;;;14.83;6.77;;;;;;;;;;5028177;28;20277;-84
2023/10/14 03:43:15;;;;;;;12.30;5.83;;;;;;;;;;4979196;28;20194;-83
2023/10/14 03:46:04;;;;;;;11.00;6.00;;;;;;;;;;4995285;28;20231;-84
2023/10/14 03:48:29;;;;;;;14.77;5.87;;;;;;;;;;4989868;28;20198;-83
2023/10/14 03:51:04;;;;;;;13.73;6.63;;;;;;;;;;4995705;28;20202;-83
2023/10/14 03:53:31;;;;;;;11.47;6.17;;;;;;;;;;4980300;28;20182;-84
2023/10/14 03:55:58;;;;;;;9.73;6.17;;;;;;;;;;4977887;28;20580;-83
2023/10/14 03:58:37;;;;;;;13.30;6.30;;;;;;;;;;4994896;28;20194;-84
2023/10/14 04:01:03;;;;;;;13.03;6.57;;;;;;;;;;4979496;28;20234;-84
2023/10/14 04:03:51;;;;;;;15.70;5.90;;;;;;;;;;4976545;28;20187;-84
2023/10/14 04:06:19;;;;;;;17.43;6.13;;;;;;;;;;4998554;28;20242;-84
2023/10/14 04:08:47;;;;;;;14.87;6.27;;;;;;;;;;4992177;28;20210;-84
2023/10/14 04:11:25;;;;;;;15.53;5.57;;;;;;;;;;4992660;28;20826;-84
2023/10/14 04:14:07;;;;;;;10.63;5.20;;;;;;;;;;5023397;28;20598;-84
2023/10/14 04:22:25;;;;;;;11.17;5.93;;;;;;;;;;5013245;28;20659;-84
2023/10/14 04:30:32;;;;;;;11.43;5.53;;;;;;;;;;5016885;28;20189;-84
2023/10/14 04:35:38;;;;;;;9.03;5.00;;;;;;;;;;4978014;28;20648;-83
2023/10/14 04:38:17;;;;;;;9.27;4.43;;;;;;;;;;5007097;28;20270;-83
2023/10/14 04:40:53;;;;;;;11.93;4.40;;;;;;;;;;4990137;28;20267;-82
2023/10/14 04:43:37;;;;;;;7.87;4.23;;;;;;;;;;4973067;28;20202;-84
2023/10/14 04:48:35;;;;;;;14.73;4.40;;;;;;;;;;4998867;28;20282;-84
2023/10/14 04:51:06;;;;;;;11.70;4.10;;;;;;;;;;4987587;28;20191;-82
2023/10/14 04:53:33;;;;;;;9.73;4.37;;;;;;;;;;4984094;28;20176;-84
2023/10/14 04:56:04;;;;;;;6.43;3.73;;;;;;;;;;5016520;28;20621;-82
2023/10/14 04:58:32;;;;;;;8.13;3.70;;;;;;;;;;4993142;28;20248;-84
2023/10/14 05:01:00;;;;;;;10.37;3.33;;;;;;;;;;4990672;28;20217;-84
2023/10/14 05:03:29;;;;;;;5.77;3.03;;;;;;;;;;5015509;28;20194;-83
2023/10/14 05:05:56;;;;;;;6.10;3.10;;;;;;;;;;4982335;28;20623;-83
2023/10/14 05:08:23;;;;;;;5.63;3.00;;;;;;;;;;5004212;28;20194;-84
2023/10/14 05:10:53;;;;;;;7.60;2.90;;;;;;;;;;5015087;28;20179;-83
2023/10/14 05:13:25;;;;;;;8.33;2.70;;;;;;;;;;4997763;28;20569;-83
2023/10/14 05:16:04;;;;;;;5.40;2.60;;;;;;;;;;4981937;28;20195;-84
2023/10/14 05:18:30;;;;;;;6.40;2.60;;;;;;;;;;5009594;28;20179;-84
2023/10/14 05:21:09;;;;;;;7.13;2.23;;;;;;;;;;4998183;28;20218;-83
2023/10/14 05:23:38;;;;;;;7.57;2.53;;;;;;;;;;5002553;28;20187;-83
2023/10/14 05:26:06;;;;;;;5.07;2.40;;;;;;;;;;5015697;28;20225;-84
2023/10/14 05:28:36;;;;;;;6.53;2.40;;;;;;;;;;4981931;28;20199;-84
2023/10/14 05:31:08;;;;;;;4.57;2.30;;;;;;;;;;4998492;28;20643;-83
2023/10/14 05:33:35;;;;;;;3.97;2.50;;;;;;;;;;5003113;28;20187;-84
2023/10/14 05:36:01;;;;;;;4.47;2.20;;;;;;;;;;4997787;28;20187;-84
2023/10/14 05:38:28;;;;;;;5.07;2.43;;;;;;;;;;5025641;28;20187;-82
2023/10/14 05:40:55;;;;;;;5.70;2.30;;;;;;;;;;5008351;28;20222;-84
2023/10/14 05:43:25;;;;;;;5.30;2.30;;;;;;;;;;4978425;28;20509;-82
2023/10/14 05:45:52;;;;;;;5.10;2.10;;;;;;;;;;4983001;28;20298;-84
2023/10/14 05:48:18;;;;;;;5.77;2.27;;;;;;;;;;4996310;28;20190;-83
2023/10/14 05:50:45;;;;;;;5.13;2.47;;;;;;;;;;5012802;28;20191;-84
2023/10/14 05:53:12;;;;;;;4.50;2.70;;;;;;;;;;4979081;28;20214;-84
2023/10/14 05:55:39;;;;;;;5.13;2.10;;;;;;;;;;4989006;28;20191;-83
2023/10/14 05:58:07;;;;;;;7.67;2.20;;;;;;;;;;4994700;28;20187;-84
2023/10/14 06:00:34;;;;;;;3.60;2.10;;;;;;;;;;4994069;28;20191;-84
2023/10/14 06:03:00;;;;;;;8.40;2.10;;;;;;;;;;5011098;28;20334;-84
2023/10/14 06:05:31;;;;;;;3.70;1.87;;;;;;;;;;5001256;28;20294;-84
2023/10/14 06:08:00;;;;;;;7.50;2.30;;;;;;;;;;4975438;28;20656;-83
2023/10/14 06:10:29;;;;;;;9.03;2.17;;;;;;;;;;4996004;28;20187;-84
2023/10/14 06:12:56;;;;;;;4.10;2.03;;;;;;;;;;5018129;28;20666;-84
2023/10/14 06:15:23;;;;;;;4.60;1.70;;;;;;;;;;4993890;28;20609;-81
2023/10/14 06:17:54;;;;;;;3.20;1.97;;;;;;;;;;5003222;28;20183;-84
2023/10/14 06:20:21;;;;;;;3.23;1.50;;;;;;;;;;4979704;28;20195;-84
2023/10/14 06:22:47;;;;;;;3.23;1.80;;;;;;;;;;5021402;28;20364;-84
2023/10/14 06:25:17;;;;;;;3.80;1.50;;;;;;;;;;4990695;28;20628;-85
2023/10/14 06:27:45;;;;;;;2.80;1.67;;;;;;;;;;4996621;28;20176;-80
2023/10/14 06:30:21;;;;;;;3.37;1.67;;;;;;;;;;4996242;28;20924;-84
2023/10/14 06:32:47;;;;;;;3.20;1.60;;;;;;;;;;4983312;28;20713;-83
2023/10/14 06:35:14;;;;;;;4.33;2.00;;;;;;;;;;4977088;28;20204;-86
2023/10/14 06:37:43;;;;;;;4.83;1.93;;;;;;;;;;4999082;28;20225;-85
2023/10/14 06:40:13;;;;;;;3.43;1.60;;;;;;;;;;4981756;28;20667;-82
2023/10/14 06:42:48;;;;;;;2.43;1.60;;;;;;;;;;5017007;28;20217;-85
2023/10/14 06:45:18;;;;;;;3.53;1.60;;;;;;;;;;4989488;28;20804;-86
2023/10/14 06:47:50;;;;;;;4.00;1.40;;;;;;;;;;4998107;28;20183;-87
2023/10/14 06:50:23;;;;;;;4.73;1.40;;;;;;;;;;4994801;28;20210;-85
2023/10/14 06:52:50;;;;;;;2.90;1.20;;;;;;;;;;5002014;28;20293;-86
2023/10/14 06:55:21;;;;;;;2.37;0.90;;;;;;;;;;4995393;28;20668;-86
2023/10/14 06:57:53;;;;;;;4.87;1.10;;;;;;;;;;4995452;28;20178;-85
2023/10/14 07:00:25;;;;;;;4.83;0.80;;;;;;;;;;4979704;28;20191;-85
2023/10/14 07:02:54;;;;;;;5.10;0.80;;;;;;;;;;4978949;28;20207;-87
2023/10/14 07:05:24;;;;;;;1.90;0.70;;;;;;;;;;4994123;28;20242;-86
2023/10/14 07:07:50;;;;;;;1.97;0.70;;;;;;;;;;4978079;28;20210;-87
2023/10/14 07:10:17;;;;;;;1.57;0.60;;;;;;;;;;4972172;28;20187;-86
2023/10/14 07:12:43;;;;;;;0.60;0.57;;;;;;;;;;4972402;28;20212;-86
2023/10/14 07:15:12;;;;;;;0.50;0.43;;;;;;;;;;4965390;28;20617;-85
2023/10/14 07:17:40;;;;;;;1.00;0.47;;;;;;;;;;4993411;28;20655;-86
2023/10/14 07:20:10;;;;;;;0.50;0.50;;;;;;;;;;4977643;28;20199;-86
2023/10/14 07:22:36;;;;;;;2.67;0.50;;;;;;;;;;5000960;28;20237;-85
2023/10/14 07:25:05;;;;;;;3.33;2.40;;;;;;;;;;4982823;28;20303;-86
2023/10/14 07:27:35;;;;;;;1.40;0.80;;;;;;;;;;4991744;28;20194;-88
2023/10/14 07:30:13;;;;;;;0.70;0.70;;;;;;;;;;4995000;28;20226;-87
2023/10/14 07:32:48;;;;;;;1.33;0.50;;;;;;;;;;4999037;28;20290;-85
2023/10/14 07:35:16;;;;;;;0.63;0.50;;;;;;;;;;4982291;28;20197;-84
2023/10/14 07:37:43;;;;;;;1.33;0.60;;;;;;;;;;4975793;28;20188;-87
2023/10/14 07:40:11;;;;;;;1.10;0.60;;;;;;;;;;4985341;28;20697;-85
2023/10/14 07:42:40;;;;;;;0.67;0.50;;;;;;;;;;4992533;28;20213;-85
2023/10/14 07:45:10;;;;;;;0.50;0.50;;;;;;;;;;4982436;28;20306;-86
2023/10/14 07:47:38;;;;;;;0.53;0.53;;;;;;;;;;4975738;28;20221;-85
2023/10/14 07:50:09;;;;;;;3.70;0.50;;;;;;;;;;4982466;28;20274;-86
2023/10/14 07:52:38;;;;;;;3.43;0.70;;;;;;;;;;4999767;28;20199;-86
2023/10/14 07:55:05;;;;;;;0.87;0.60;;;;;;;;;;5027861;28;20189;-86
2023/10/14 07:57:31;;;;;;;0.63;0.60;;;;;;;;;;5003009;28;20182;-85
2023/10/14 08:00:09;;;;;;;0.80;0.57;;;;;;;;;;4986433;28;20187;-85
2023/10/14 08:02:40;;;;;;;0.90;0.50;;;;;;;;;;4999969;28;20301;-86
2023/10/14 08:05:07;;;;;;;0.97;0.60;;;;;;;;;;5024644;28;20216;-85
2023/10/14 08:07:44;;;;;;;0.60;0.60;;;;;;;;;;4985632;28;20278;-85
2023/10/14 08:10:18;;;;;;;0.60;0.60;;;;;;;;;;4964308;28;20198;-86
2023/10/14 08:12:47;;;;;;;0.50;0.50;;;;;;;;;;4989925;28;20232;-85
2023/10/14 08:15:14;;;;;;;0.60;0.60;;;;;;;;;;4986973;28;20197;-85
2023/10/14 08:17:41;;;;;;;0.67;0.57;;;;;;;;;;4994377;28;20536;-85
2023/10/14 08:20:12;;;;;;;0.90;0.50;;;;;;;;;;4992908;28;20241;-85
2023/10/14 08:22:40;;;;;;;0.50;0.50;;;;;;;;;;4990639;28;20210;-86
2023/10/14 08:25:07;;;;;;;1.00;0.60;;;;;;;;;;4999592;28;20214;-85
2023/10/14 08:27:34;;;;;;;0.80;0.60;;;;;;;;;;4999938;28;20187;-85
2023/10/14 08:30:01;;;;;;;0.93;0.67;;;;;;;;;;5005524;28;20179;-87
2023/10/14 08:32:29;;;;;;;1.73;0.60;;;;;;;;;;5011606;28;20199;-85
2023/10/14 08:34:55;;;;;;;0.73;0.60;;;;;;;;;;5015725;28;20183;-86
2023/10/14 08:37:21;;;;;;;0.83;0.70;;;;;;;;;;4989012;28;20202;-87
2023/10/14 08:39:47;;;;;;;2.87;0.70;;;;;;;;;;5021780;28;20183;-86
2023/10/14 08:42:15;;;;;;;3.20;1.07;;;;;;;;;;5002939;28;20403;-85
2023/10/14 08:44:45;;;;;;;2.57;1.07;;;;;;;;;;5010490;28;20214;-85
2023/10/14 08:47:15;;;;;;;3.97;1.20;;;;;;;;;;5041395;28;20454;-85
2023/10/14 08:49:42;;;;;;;3.13;1.17;;;;;;;;;;4973808;28;20187;-86
2023/10/14 08:52:10;;;;;;;2.47;1.10;;;;;;;;;;4971858;28;20269;-86
2023/10/14 08:54:38;;;;;;;2.27;1.10;;;;;;;;;;5004052;28;20198;-85
2023/10/14 08:57:05;;;;;;;2.53;1.20;;;;;;;;;;4996061;28;20328;-86
2023/10/14 08:59:31;;;;;;;3.47;1.10;;;;;;;;;;5020692;28;20252;-87
2023/10/14 09:01:58;;;;;;;2.87;1.10;;;;;;;;;;4981402;28;20203;-88
2023/10/14 09:04:28;;;;;;;3.13;1.13;;;;;;;;;;4983980;28;20179;-85
2023/10/14 09:07:00;;;;;;;4.37;1.10;;;;;;;;;;5003104;28;20187;-85
2023/10/14 09:09:26;;;;;;;3.20;1.30;;;;;;;;;;4999964;28;20186;-85
2023/10/14 09:11:52;;;;;;;2.77;1.23;;;;;;;;;;4974741;28;20203;-85
2023/10/14 09:14:19;;;;;;;2.30;1.13;;;;;;;;;;5006444;28;20275;-85
2023/10/14 09:16:49;;;;;;;4.10;1.37;;;;;;;;;;5008061;28;20214;-86
2023/10/14 09:19:15;;;;;;;3.63;1.40;;;;;;;;;;5007885;28;20191;-86
2023/10/14 09:21:45;;;;;;;4.13;1.50;;;;;;;;;;5015580;28;20210;-86
2023/10/14 09:24:11;;;;;;;4.90;1.63;;;;;;;;;;4982662;28;20195;-86
2023/10/14 09:26:44;;;;;;;4.10;1.70;;;;;;;;;;4998710;28;20237;-86
2023/10/14 09:29:11;;;;;;;4.37;1.43;;;;;;;;;;4983254;28;20217;-86
2023/10/14 09:31:38;;;;;;;5.23;1.90;;;;;;;;;;4997227;28;20248;-86
2023/10/14 09:34:04;;;;;;;4.87;1.60;;;;;;;;;;4979991;28;20196;-86
2023/10/14 09:36:34;;;;;;;3.63;1.63;;;;;;;;;;5007212;28;20603;-86
2023/10/14 09:39:08;;;;;;;10.00;1.90;;;;;;;;;;4990847;28;20191;-86
2023/10/14 09:41:36;;;;;;;6.87;2.13;;;;;;;;;;5007548;28;20289;-86
2023/10/14 09:44:03;;;;;;;5.70;1.70;;;;;;;;;;4981731;28;20770;-86
2023/10/14 09:46:29;;;;;;;5.97;1.77;;;;;;;;;;5006197;28;20265;-86
2023/10/14 09:48:56;;;;;;;4.37;1.60;;;;;;;;;;4979573;28;20677;-86
2023/10/14 09:51:23;;;;;;;6.67;1.60;;;;;;;;;;4988888;28;20358;-86
2023/10/14 09:53:49;;;;;;;4.67;1.93;;;;;;;;;;4998472;28;20187;-86
2023/10/14 09:56:15;;;;;;;6.20;1.90;;;;;;;;;;4966579;28;20289;-82
2023/10/14 09:58:43;;;;;;;6.00;1.80;;;;;;;;;;5019129;28;20282;-84
2023/10/14 10:01:16;;;;;;;5.30;1.73;;;;;;;;;;5001684;28;20215;-83
2023/10/14 10:03:44;;;;;;;5.27;1.67;;;;;;;;;;5019360;28;20257;-83
2023/10/14 10:06:13;;;;;;;6.33;2.10;;;;;;;;;;5020465;28;20306;-83
2023/10/14 10:08:58;;;;;;;5.57;1.93;;;;;;;;;;4994604;28;20560;-83
2023/10/14 10:11:25;;;;;;;5.57;1.80;;;;;;;;;;4996609;28;20207;-83
2023/10/14 10:13:52;;;;;;;5.13;1.77;;;;;;;;;;5018482;28;20191;-83
2023/10/14 10:16:22;;;;;;;4.50;1.70;;;;;;;;;;5021081;28;20325;-83
2023/10/14 10:18:52;;;;;;;6.00;1.93;;;;;;;;;;5002058;28;20254;-83
2023/10/14 10:21:19;;;;;;;4.97;1.90;;;;;;;;;;5003343;28;20233;-83
2023/10/14 10:23:49;;;;;;;5.87;1.63;;;;;;;;;;5005709;28;20191;-83
2023/10/14 10:26:18;;;;;;;6.00;1.87;;;;;;;;;;5002282;28;20218;-83
2023/10/14 10:28:45;;;;;;;5.30;1.90;;;;;;;;;;5000785;28;20265;-84
2023/10/14 10:31:16;;;;;;;4.57;1.60;;;;;;;;;;4989895;28;20207;-83
2023/10/14 10:33:45;;;;;;;5.47;1.80;;;;;;;;;;4980692;28;20727;-84
2023/10/14 10:36:13;;;;;;;5.23;1.80;;;;;;;;;;5004314;28;20238;-82
2023/10/14 10:38:39;;;;;;;7.73;2.07;;;;;;;;;;5011796;28;20616;-84
2023/10/14 10:41:24;;;;;;;5.73;1.90;;;;;;;;;;5017697;28;20187;-83
2023/10/14 10:43:51;;;;;;;5.23;2.00;;;;;;;;;;5018064;28;20195;-83
2023/10/14 10:46:29;;;;;;;6.07;1.83;;;;;;;;;;5017990;28;20230;-83
2023/10/14 10:48:55;;;;;;;4.50;2.07;;;;;;;;;;4997436;28;20214;-83
2023/10/14 10:51:22;;;;;;;3.27;1.70;;;;;;;;;;4997484;28;20627;-84
2023/10/14 10:53:49;;;;;;;4.83;1.97;;;;;;;;;;4997716;28;20694;-84
2023/10/14 10:56:20;;;;;;;4.10;1.87;;;;;;;;;;5006004;28;20190;-78
2023/10/14 10:58:46;;;;;;;5.37;1.73;;;;;;;;;;4992018;28;20231;-78
2023/10/14 11:01:14;;;;;;;4.50;1.80;;;;;;;;;;5012530;28;20206;-78
2023/10/14 11:03:45;;;;;;;6.77;1.70;;;;;;;;;;5012159;28;20559;-78
2023/10/14 11:06:13;;;;;;;4.60;1.80;;;;;;;;;;5020700;28;20281;-78
2023/10/14 11:08:40;;;;;;;5.37;1.80;;;;;;;;;;5011620;28;20232;-79
2023/10/14 11:11:07;;;;;;;4.87;1.77;;;;;;;;;;5016845;28;20190;-80
2023/10/14 11:13:36;;;;;;;3.67;1.77;;;;;;;;;;5022655;28;20209;-82
2023/10/14 11:16:12;;;;;;;5.13;1.77;;;;;;;;;;4996864;28;20199;-78
2023/10/14 11:18:50;;;;;;;5.70;1.90;;;;;;;;;;5006758;28;20705;-79
2023/10/14 11:21:17;;;;;;;4.63;1.73;;;;;;;;;;5007187;28;20246;-78
2023/10/14 11:23:44;;;;;;;2.73;1.50;;;;;;;;;;5004205;28;20184;-78
2023/10/14 11:26:11;;;;;;;5.50;1.80;;;;;;;;;;4993999;28;20214;-78
2023/10/14 11:28:38;;;;;;;10.20;2.07;;;;;;;;;;4994386;28;20178;-78
2023/10/14 11:31:07;;;;;;;5.93;1.93;;;;;;;;;;5012295;28;20218;-78
2023/10/14 11:33:35;;;;;;;5.63;2.10;;;;;;;;;;4986104;28;20585;-78
2023/10/14 11:36:02;;;;;;;5.43;2.17;;;;;;;;;;5002090;28;20207;-77
2023/10/14 11:38:30;;;;;;;3.57;1.83;;;;;;;;;;4970886;28;20290;-78
2023/10/14 11:41:02;;;;;;;6.10;1.70;;;;;;;;;;5012147;28;20240;-78
2023/10/14 11:43:30;;;;;;;5.10;1.80;;;;;;;;;;5007022;28;20194;-77
2023/10/14 11:45:56;;;;;;;4.83;1.80;;;;;;;;;;5004457;28;20211;-78
2023/10/14 11:48:23;;;;;;;4.83;1.80;;;;;;;;;;4986649;28;20187;-76
2023/10/14 11:51:11;;;;;;;5.80;1.90;;;;;;;;;;4972755;28;20640;-78
2023/10/14 11:53:43;;;;;;;3.47;1.53;;;;;;;;;;5006110;28;20184;-78
2023/10/14 11:56:13;;;;;;;5.10;1.73;;;;;;;;;;5010001;28;20246;-78
2023/10/14 11:58:42;;;;;;;5.33;1.57;;;;;;;;;;5019742;28;20269;-78
2023/10/14 12:01:09;;;;;;;5.20;1.70;;;;;;;;;;4993992;28;20194;-78
2023/10/14 12:03:35;;;;;;;4.03;1.47;;;;;;;;;;5012693;28;20187;-78
2023/10/14 12:06:03;;;;;;;3.50;1.57;;;;;;;;;;5012976;28;20214;-78
2023/10/14 12:08:31;;;;;;;6.10;1.70;;;;;;;;;;5013182;28;20546;-78
2023/10/14 12:10:57;;;;;;;3.87;1.70;;;;;;;;;;4993929;28;20910;-78
2023/10/14 12:13:24;;;;;;;3.17;1.40;;;;;;;;;;5005007;28;20183;-78
2023/10/14 12:15:50;;;;;;;4.47;1.60;;;;;;;;;;5012375;28;20225;-78
2023/10/14 12:18:17;;;;;;;4.03;1.63;;;;;;;;;;5019495;28;20689;-78
2023/10/14 12:20:48;;;;;;;3.43;1.50;;;;;;;;;;5011493;28;20251;-78
2023/10/14 12:23:20;;;;;;;4.63;1.60;;;;;;;;;;5012951;28;20222;-78
2023/10/14 12:25:46;;;;;;;2.70;1.50;;;;;;;;;;5019096;28;20706;-78
2023/10/14 12:28:17;;;;;;;4.97;1.87;;;;;;;;;;5013278;28;20201;-78
2023/10/14 12:30:46;;;;;;;4.70;1.83;;;;;;;;;;5014317;28;20198;-78
2023/10/14 12:33:19;;;;;;;8.07;1.60;;;;;;;;;;5014445;28;20691;-78
2023/10/14 12:35:46;;;;;;;2.60;1.33;;;;;;;;;;5011554;28;20651;-78
2023/10/14 12:38:15;;;;;;;5.40;2.10;;;;;;;;;;5019234;28;20184;-78
2023/10/14 12:40:45;;;;;;;3.00;1.40;;;;;;;;;;5014286;28;20191;-78
2023/10/14 12:43:15;;;;;;;2.93;1.20;;;;;;;;;;5015956;28;20215;-78
2023/10/14 12:45:49;;;;;;;3.80;1.40;;;;;;;;;;5027278;28;20212;-78
2023/10/14 12:48:16;;;;;;;4.97;1.43;;;;;;;;;;5018877;28;20183;-78
2023/10/14 12:50:46;;;;;;;2.97;1.20;;;;;;;;;;5016462;28;20269;-79
2023/10/14 12:53:12;;;;;;;4.70;1.30;;;;;;;;;;5014364;28;20257;-78
2023/10/14 12:55:44;;;;;;;3.13;1.30;;;;;;;;;;5014307;28;20179;-78
2023/10/14 12:58:12;;;;;;;3.33;1.40;;;;;;;;;;5016602;28;20192;-79
2023/10/14 13:00:38;;;;;;;3.87;1.30;;;;;;;;;;5008857;28;20613;-78
2023/10/14 13:03:09;;;;;;;4.07;1.50;;;;;;;;;;4999147;28;20210;-78
2023/10/14 13:05:35;;;;;;;3.10;1.33;;;;;;;;;;5017526;28;20298;-78
2023/10/14 13:08:02;;;;;;;3.80;1.60;;;;;;;;;;5018063;28;20194;-78
2023/10/14 13:10:28;;;;;;;3.03;1.50;;;;;;;;;;5017126;28;20651;-78
2023/10/14 13:12:56;;;;;;;2.83;1.20;;;;;;;;;;5021591;28;20245;-78
2023/10/14 13:15:30;;;;;;;3.13;1.40;;;;;;;;;;5016567;28;20187;-78
2023/10/14 13:17:59;;;;;;;2.57;1.37;;;;;;;;;;5019183;28;20195;-78
2023/10/14 13:20:28;;;;;;;4.93;1.40;;;;;;;;;;5015729;28;20535;-78
2023/10/14 13:22:55;;;;;;;3.83;1.20;;;;;;;;;;5003249;28;20215;-78
2023/10/14 13:25:22;;;;;;;4.10;1.40;;;;;;;;;;5023446;28;20210;-78
2023/10/14 13:27:49;;;;;;;2.43;1.13;;;;;;;;;;5023401;28;20655;-78
2023/10/14 13:30:16;;;;;;;2.70;1.20;;;;;;;;;;5018006;28;20696;-78
2023/10/14 13:32:42;;;;;;;2.97;1.40;;;;;;;;;;4999798;28;20210;-78
2023/10/14 13:35:09;;;;;;;3.73;1.50;;;;;;;;;;5006452;28;20191;-78
2023/10/14 13:37:35;;;;;;;3.47;1.43;;;;;;;;;;5018594;28;20190;-78
2023/10/14 13:40:02;;;;;;;3.53;1.40;;;;;;;;;;5020709;28;20249;-78
2023/10/14 13:42:29;;;;;;;4.17;1.43;;;;;;;;;;5016383;28;20846;-78
2023/10/14 13:44:55;;;;;;;3.03;1.30;;;;;;;;;;5015035;28;20706;-79
2023/10/14 13:47:21;;;;;;;4.60;1.30;;;;;;;;;;5018916;28;20217;-78
2023/10/14 13:49:47;;;;;;;3.40;1.33;;;;;;;;;;5019831;28;20667;-78
2023/10/14 13:52:16;;;;;;;4.47;1.50;;;;;;;;;;5019400;28;20261;-78
2023/10/14 13:54:43;;;;;;;4.17;1.30;;;;;;;;;;5008350;28;20181;-78
2023/10/14 13:57:11;;;;;;;2.83;1.30;;;;;;;;;;5017278;28;20274;-78
2023/10/14 13:59:40;;;;;;;4.40;1.53;;;;;;;;;;5021372;28;21042;-78
2023/10/14 14:02:06;;;;;;;3.90;1.40;;;;;;;;;;5018719;28;20560;-78
2023/10/14 14:04:33;;;;;;;3.63;1.20;;;;;;;;;;5019488;28;20187;-78
2023/10/14 14:07:02;;;;;;;4.37;1.33;;;;;;;;;;5013249;28;20205;-78
2023/10/14 14:09:30;;;;;;;3.80;1.20;;;;;;;;;;5016770;28;20192;-78
2023/10/14 14:11:56;;;;;;;4.80;1.50;;;;;;;;;;5022690;28;20200;-78
2023/10/14 14:14:23;;;;;;;4.17;1.37;;;;;;;;;;5017099;28;20179;-78
2023/10/14 14:16:49;;;;;;;3.07;1.20;;;;;;;;;;4997893;28;20214;-78
2023/10/14 14:19:18;;;;;;;4.47;1.37;;;;;;;;;;5019936;28;20216;-78
2023/10/14 14:21:48;;;;;;;4.37;1.50;;;;;;;;;;5019807;28;20210;-78
2023/10/14 14:24:17;;;;;;;2.20;1.13;;;;;;;;;;5024905;28;20187;-78
2023/10/14 14:26:43;;;;;;;4.17;1.47;;;;;;;;;;5015453;28;20569;-78
2023/10/14 14:29:10;;;;;;;1.90;1.10;;;;;;;;;;5018923;28;20674;-78
2023/10/14 14:31:36;;;;;;;2.03;1.20;;;;;;;;;;5012917;28;20207;-77
2023/10/14 14:34:02;;;;;;;2.73;1.27;;;;;;;;;;5013146;28;20179;-78
2023/10/14 14:36:28;;;;;;;5.20;1.40;;;;;;;;;;5019695;28;20195;-78
2023/10/14 14:38:54;;;;;;;3.47;1.20;;;;;;;;;;5012690;28;20670;-78
2023/10/14 14:41:27;;;;;;;5.77;1.70;;;;;;;;;;5020056;28;20211;-78
2023/10/14 14:43:55;;;;;;;3.00;1.17;;;;;;;;;;5022063;28;20221;-78
2023/10/14 14:46:21;;;;;;;2.23;1.10;;;;;;;;;;5016884;28;20234;-77
2023/10/14 14:48:52;;;;;;;3.80;1.30;;;;;;;;;;5017102;28;20184;-78
2023/10/14 14:51:18;;;;;;;3.23;1.10;;;;;;;;;;5024777;28;20706;-78
2023/10/14 14:53:44;;;;;;;2.83;1.20;;;;;;;;;;5019828;28;20216;-78
2023/10/14 14:56:11;;;;;;;3.43;1.50;;;;;;;;;;5015040;28;20225;-78
2023/10/14 14:58:38;;;;;;;3.73;1.33;;;;;;;;;;5019954;28;20237;-77
2023/10/14 15:01:16;;;;;;;4.83;1.30;;;;;;;;;;5023231;28;20183;-78
2023/10/14 15:03:45;;;;;;;2.47;1.30;;;;;;;;;;5020565;28;20536;-78
2023/10/14 15:06:11;;;;;;;4.10;1.50;;;;;;;;;;5023856;28;20285;-78
2023/10/14 15:08:38;;;;;;;3.43;1.27;;;;;;;;;;5014559;28;20187;-78
2023/10/14 15:11:04;;;;;;;3.40;1.30;;;;;;;;;;5015128;28;20191;-78
2023/10/14 15:13:31;;;;;;;3.67;1.40;;;;;;;;;;5021388;28;20271;-77
2023/10/14 15:15:58;;;;;;;4.87;1.40;;;;;;;;;;5010129;28;20190;-78
2023/10/14 15:18:24;;;;;;;4.20;1.17;;;;;;;;;;5017023;28;20218;-77
2023/10/14 15:20:50;;;;;;;2.77;1.30;;;;;;;;;;5017061;28;20257;-78
2023/10/14 15:23:17;;;;;;;4.80;1.43;;;;;;;;;;5012057;28;20248;-78
2023/10/14 15:25:44;;;;;;;2.60;1.30;;;;;;;;;;4994626;28;20215;-79
2023/10/14 15:28:11;;;;;;;3.07;1.20;;;;;;;;;;5012643;28;20178;-78